createdAt,value
2019-03-29T00:00:56.881Z,94.50
2019-03-29T00:03:32.615Z,94.70
2019-03-29T00:06:08.351Z,94.70
2019-03-29T00:08:44.071Z,94.80
2019-03-29T00:11:20.010Z,94.50
2019-03-29T00:13:56.631Z,94.60
2019-03-29T00:16:32.372Z,94.40
2019-03-29T00:19:08.056Z,94.40
2019-03-29T00:21:43.828Z,94.70
2019-03-29T00:24:19.609Z,94.60
2019-03-29T00:26:55.375Z,94.40
2019-03-29T00:29:31.162Z,94.60
2019-03-29T00:32:06.816Z,94.80
2019-03-29T00:34:42.555Z,94.70
2019-03-29T00:37:18.315Z,94.80
2019-03-29T00:39:54.070Z,94.90
2019-03-29T00:42:29.733Z,94.90
2019-03-29T00:45:05.916Z,94.80
2019-03-29T00:47:41.633Z,95.00
2019-03-29T00:50:18.478Z,95.10
2019-03-29T00:52:54.270Z,95.20
2019-03-29T00:55:30.090Z,95.10
2019-03-29T00:58:05.955Z,95.20
2019-03-29T01:00:41.845Z,95.20
2019-03-29T01:03:17.554Z,95.20
2019-03-29T01:05:53.314Z,95.30
2019-03-29T01:08:29.111Z,95.40
2019-03-29T01:11:04.875Z,95.90
2019-03-29T01:13:40.586Z,95.80
2019-03-29T01:16:16.407Z,95.70
2019-03-29T01:18:52.121Z,95.50
2019-03-29T01:21:27.819Z,95.70
2019-03-29T01:24:03.493Z,96.00
2019-03-29T01:26:39.293Z,95.70
2019-03-29T01:29:15.261Z,95.50
2019-03-29T01:31:51.177Z,95.50
2019-03-29T01:34:26.897Z,95.50
2019-03-29T01:37:02.831Z,95.60
2019-03-29T01:39:38.537Z,95.60
2019-03-29T01:42:14.409Z,95.50
2019-03-29T01:44:50.037Z,95.50
2019-03-29T01:47:25.814Z,95.80
2019-03-29T01:50:01.661Z,95.70
2019-03-29T01:52:37.546Z,95.70
2019-03-29T01:55:13.192Z,95.50
2019-03-29T01:57:48.877Z,95.50
2019-03-29T02:00:31.498Z,95.60
2019-03-29T02:03:07.242Z,95.50
2019-03-29T02:05:42.948Z,95.50
2019-03-29T02:08:18.772Z,95.60
2019-03-29T02:10:54.521Z,95.60
2019-03-29T02:13:30.302Z,95.50
2019-03-29T02:16:06.020Z,95.50
2019-03-29T02:18:42.074Z,95.50
2019-03-29T02:21:17.783Z,95.20
2019-03-29T02:23:53.637Z,95.30
2019-03-29T02:26:29.304Z,95.60
2019-03-29T02:29:05.242Z,95.60
2019-03-29T02:31:42.349Z,95.80
2019-03-29T02:34:18.179Z,95.80
2019-03-29T02:36:53.901Z,95.80
2019-03-29T02:39:29.657Z,95.90
2019-03-29T02:42:05.464Z,95.90
2019-03-29T02:44:41.138Z,95.90
2019-03-29T02:47:16.880Z,96.00
2019-03-29T02:49:52.784Z,96.10
2019-03-29T02:52:28.537Z,96.10
2019-03-29T02:55:04.378Z,96.40
2019-03-29T02:57:40.077Z,96.20
2019-03-29T03:00:15.890Z,95.90
2019-03-29T03:02:51.673Z,96.10
2019-03-29T03:05:27.435Z,96.00
2019-03-29T03:08:03.171Z,95.80
2019-03-29T03:10:38.885Z,96.00
2019-03-29T03:13:14.608Z,95.90
2019-03-29T03:15:50.443Z,96.00
2019-03-29T03:18:26.352Z,96.00
2019-03-29T03:21:02.108Z,96.00
2019-03-29T03:23:37.869Z,96.20
2019-03-29T03:26:13.630Z,96.20
2019-03-29T03:28:49.550Z,96.20
2019-03-29T03:31:25.372Z,96.20
2019-03-29T03:34:01.116Z,96.30
2019-03-29T03:36:36.872Z,96.20
2019-03-29T03:39:30.188Z,96.20
2019-03-29T03:41:50.113Z,96.20
2019-03-29T03:44:26.086Z,96.40
2019-03-29T03:47:02.116Z,96.40
2019-03-29T03:49:37.910Z,96.50
2019-03-29T03:52:13.672Z,96.60
2019-03-29T03:54:49.306Z,96.60
2019-03-29T03:57:25.061Z,96.60
2019-03-29T04:00:00.764Z,96.60
2019-03-29T04:02:36.589Z,96.60
2019-03-29T04:05:12.359Z,96.60
2019-03-29T04:07:48.118Z,96.70
2019-03-29T04:10:23.851Z,96.70
2019-03-29T04:12:59.607Z,96.60
2019-03-29T04:15:35.599Z,96.70
2019-03-29T04:18:15.417Z,96.50
2019-03-29T04:20:48.866Z,96.70
2019-03-29T04:23:27.491Z,96.70
2019-03-29T04:26:03.622Z,96.80
2019-03-29T04:28:39.627Z,96.60
2019-03-29T04:31:15.333Z,96.70
2019-03-29T04:33:51.116Z,96.50
2019-03-29T04:36:26.861Z,96.50
2019-03-29T04:39:06.267Z,96.70
2019-03-29T04:41:42.005Z,96.40
2019-03-29T04:44:17.852Z,96.40
2019-03-29T04:46:53.592Z,96.60
2019-03-29T04:49:29.419Z,96.90
2019-03-29T04:52:05.205Z,96.90
2019-03-29T04:54:41.036Z,97.00
2019-03-29T04:57:16.748Z,97.00
2019-03-29T04:59:52.877Z,96.80
2019-03-29T05:02:28.601Z,96.90
2019-03-29T05:05:04.381Z,96.80
2019-03-29T05:07:40.041Z,96.80
2019-03-29T05:10:21.599Z,97.00
2019-03-29T05:12:53.218Z,96.90
2019-03-29T05:15:29.122Z,96.80
2019-03-29T05:18:04.985Z,96.80
2019-03-29T05:20:40.766Z,96.80
2019-03-29T05:23:16.495Z,96.80
2019-03-29T05:25:52.135Z,97.00
2019-03-29T05:28:27.878Z,97.00
2019-03-29T05:31:03.761Z,97.00
2019-03-29T05:33:39.480Z,96.80
2019-03-29T05:36:15.503Z,96.90
2019-03-29T05:38:51.131Z,97.00
2019-03-29T05:41:27.074Z,96.90
2019-03-29T05:44:02.795Z,96.70
2019-03-29T05:46:38.572Z,96.70
2019-03-29T05:49:14.372Z,97.00
2019-03-29T05:51:50.166Z,96.90
2019-03-29T05:54:25.944Z,96.90
2019-03-29T05:57:01.784Z,97.10
2019-03-29T05:59:37.589Z,96.90
2019-03-29T06:02:17.915Z,97.20
2019-03-29T06:04:53.645Z,97.00
2019-03-29T06:07:29.595Z,97.00
2019-03-29T06:10:05.678Z,97.00
2019-03-29T06:12:41.425Z,97.00
2019-03-29T06:15:17.173Z,96.30
2019-03-29T06:17:52.989Z,96.20
2019-03-29T06:20:28.881Z,96.50
2019-03-29T06:23:04.620Z,96.80
2019-03-29T06:25:40.373Z,96.80
2019-03-29T06:28:16.211Z,97.10
2019-03-29T06:30:53.559Z,96.80
2019-03-29T06:33:29.434Z,97.10
2019-03-29T06:36:05.184Z,97.20
2019-03-29T06:38:40.933Z,97.00
2019-03-29T06:41:16.632Z,97.20
2019-03-29T06:43:52.531Z,97.30
2019-03-29T06:46:28.356Z,97.10
2019-03-29T06:49:04.062Z,97.50
2019-03-29T06:51:39.790Z,97.50
2019-03-29T06:54:15.828Z,97.50
2019-03-29T06:56:51.748Z,97.40
2019-03-29T06:59:28.674Z,97.30
2019-03-29T07:02:04.515Z,97.50
2019-03-29T07:04:40.256Z,97.50
2019-03-29T07:07:15.932Z,97.20
2019-03-29T07:09:51.754Z,97.40
2019-03-29T07:12:27.468Z,97.40
2019-03-29T07:15:03.427Z,97.20
2019-03-29T07:17:39.176Z,96.80
2019-03-29T07:20:14.955Z,97.20
2019-03-29T07:22:50.595Z,96.70
2019-03-29T07:25:26.257Z,96.70
2019-03-29T07:28:01.963Z,96.70
2019-03-29T07:30:37.917Z,96.10
2019-03-29T07:33:13.739Z,95.80
2019-03-29T07:35:49.546Z,96.00
2019-03-29T07:38:25.380Z,96.30
2019-03-29T07:41:01.111Z,96.30
2019-03-29T07:43:36.861Z,95.60
2019-03-29T07:46:12.660Z,95.90
2019-03-29T07:48:48.389Z,95.90
2019-03-29T07:51:24.155Z,95.80
2019-03-29T07:53:59.937Z,95.90
2019-03-29T07:56:35.765Z,96.30
2019-03-29T07:59:11.491Z,95.90
2019-03-29T08:01:47.205Z,95.70
2019-03-29T08:04:23.865Z,95.20
2019-03-29T08:06:59.994Z,94.80
2019-03-29T08:09:35.701Z,94.60
2019-03-29T08:12:11.483Z,93.50
2019-03-29T08:14:47.312Z,93.50
2019-03-29T08:17:23.244Z,93.00
2019-03-29T08:20:30.310Z,92.60
2019-03-29T08:22:36.655Z,90.70
2019-03-29T08:25:12.498Z,90.40
2019-03-29T08:27:48.195Z,89.50
2019-03-29T08:30:24.918Z,91.00
2019-03-29T08:33:00.965Z,90.60
2019-03-29T08:35:36.642Z,88.20
2019-03-29T08:38:12.443Z,87.10
2019-03-29T08:40:48.164Z,88.00
2019-03-29T08:43:23.941Z,87.40
2019-03-29T08:45:59.770Z,86.50
2019-03-29T08:48:35.521Z,86.00
2019-03-29T08:51:11.289Z,84.40
2019-03-29T08:53:47.345Z,85.80
2019-03-29T08:56:23.100Z,85.70
2019-03-29T08:58:58.845Z,85.10
2019-03-29T09:01:37.570Z,82.60
2019-03-29T09:04:13.365Z,81.60
2019-03-29T09:06:53.838Z,83.70
2019-03-29T09:09:28.252Z,81.90
2019-03-29T09:12:14.286Z,81.70
2019-03-29T09:14:41.444Z,82.80
2019-03-29T09:17:17.312Z,80.50
2019-03-29T09:19:53.217Z,80.80
2019-03-29T09:22:28.964Z,80.60
2019-03-29T09:25:04.945Z,80.40
2019-03-29T09:27:40.829Z,79.50
2019-03-29T09:30:16.807Z,77.20
2019-03-29T09:32:52.545Z,77.80
2019-03-29T09:35:28.407Z,78.00
2019-03-29T09:38:04.141Z,77.80
2019-03-29T09:40:39.970Z,78.30
2019-03-29T09:43:15.779Z,78.50
2019-03-29T09:45:51.492Z,77.10
2019-03-29T09:48:27.290Z,78.20
2019-03-29T09:51:03.052Z,77.10
2019-03-29T09:53:41.136Z,77.40
2019-03-29T09:56:16.472Z,77.70
2019-03-29T09:58:52.178Z,72.70
2019-03-29T10:01:28.126Z,73.00
2019-03-29T10:04:03.904Z,73.80
2019-03-29T10:06:39.712Z,71.20
2019-03-29T10:09:15.481Z,71.60
2019-03-29T10:11:51.332Z,70.90
2019-03-29T10:14:27.188Z,71.90
2019-03-29T10:17:02.976Z,69.50
2019-03-29T10:19:38.747Z,70.10
2019-03-29T10:22:14.564Z,71.80
2019-03-29T10:24:50.322Z,69.20
2019-03-29T10:27:26.194Z,72.40
2019-03-29T10:30:02.015Z,67.00
2019-03-29T10:32:39.197Z,66.80
2019-03-29T10:35:14.939Z,66.90
2019-03-29T10:37:51.777Z,66.90
2019-03-29T10:40:27.591Z,66.30
2019-03-29T10:43:03.298Z,65.60
2019-03-29T10:45:40.666Z,68.20
2019-03-29T10:48:16.604Z,68.20
2019-03-29T10:50:52.323Z,67.00
2019-03-29T10:53:28.922Z,67.00
2019-03-29T10:56:04.769Z,67.00
2019-03-29T10:58:40.502Z,67.00
2019-03-29T11:01:16.331Z,67.10
2019-03-29T11:03:52.083Z,68.40
2019-03-29T11:06:27.830Z,64.60
2019-03-29T11:09:04.706Z,65.40
2019-03-29T11:11:40.788Z,61.40
2019-03-29T11:14:16.658Z,62.50
2019-03-29T11:16:52.392Z,62.60
2019-03-29T11:19:28.213Z,62.80
2019-03-29T11:22:04.938Z,60.00
2019-03-29T11:24:41.764Z,61.30
2019-03-29T11:27:17.621Z,64.10
2019-03-29T11:29:53.560Z,62.80
2019-03-29T11:32:29.199Z,63.90
2019-03-29T11:35:05.079Z,64.80
2019-03-29T11:37:40.868Z,60.00
2019-03-29T11:40:18.206Z,61.10
2019-03-29T11:42:54.004Z,60.20
2019-03-29T11:45:30.046Z,59.10
2019-03-29T11:48:09.006Z,62.60
2019-03-29T11:50:43.317Z,60.20
2019-03-29T11:53:19.197Z,59.20
2019-03-29T11:55:55.033Z,56.70
2019-03-29T11:58:30.801Z,56.20
2019-03-29T12:01:06.697Z,56.60
2019-03-29T12:03:43.369Z,58.30
2019-03-29T12:06:21.411Z,57.00
2019-03-29T12:08:57.539Z,58.90
2019-03-29T12:11:33.401Z,57.70
2019-03-29T12:14:09.103Z,58.20
2019-03-29T12:16:44.871Z,58.10
2019-03-29T12:19:20.639Z,58.00
2019-03-29T12:21:56.649Z,57.80
2019-03-29T12:24:32.377Z,57.70
2019-03-29T12:27:11.181Z,57.20
2019-03-29T12:29:46.839Z,56.60
2019-03-29T12:32:22.549Z,56.50
2019-03-29T12:34:58.269Z,57.20
2019-03-29T12:37:34.083Z,56.60
2019-03-29T12:40:10.108Z,58.20
2019-03-29T12:42:45.827Z,58.00
2019-03-29T12:45:21.596Z,56.20
2019-03-29T12:47:57.384Z,56.90
2019-03-29T12:50:33.188Z,56.20
2019-03-29T12:53:08.998Z,56.80
2019-03-29T12:55:44.848Z,56.40
2019-03-29T12:58:20.592Z,57.30
2019-03-29T13:00:56.268Z,57.50
2019-03-29T13:03:32.035Z,58.40
2019-03-29T13:06:07.802Z,59.50
2019-03-29T13:08:43.718Z,59.40
2019-03-29T13:11:19.440Z,58.30
2019-03-29T13:14:09.101Z,59.10
2019-03-29T13:16:32.581Z,57.90
2019-03-29T13:19:08.369Z,57.60
2019-03-29T13:21:44.117Z,58.50
2019-03-29T13:24:19.885Z,57.00
2019-03-29T13:26:55.635Z,58.80
2019-03-29T13:29:31.395Z,57.70
2019-03-29T13:32:07.342Z,58.40
2019-03-29T13:34:43.219Z,56.30
2019-03-29T13:37:19.094Z,57.70
2019-03-29T13:39:54.795Z,58.80
2019-03-29T13:42:30.665Z,57.10
2019-03-29T13:45:06.762Z,56.70
2019-03-29T13:47:42.491Z,56.20
2019-03-29T13:50:18.261Z,55.80
2019-03-29T13:52:53.958Z,55.80
2019-03-29T13:55:29.752Z,55.60
2019-03-29T13:58:05.585Z,56.20
2019-03-29T14:00:41.383Z,55.20
2019-03-29T14:03:17.124Z,55.80
2019-03-29T14:05:52.894Z,56.20
2019-03-29T14:08:28.616Z,56.40
2019-03-29T14:11:04.405Z,56.30
2019-03-29T14:13:40.295Z,57.40
2019-03-29T14:16:16.020Z,57.20
2019-03-29T14:18:51.728Z,56.40
2019-03-29T14:21:27.434Z,56.70
2019-03-29T14:24:03.162Z,56.70
2019-03-29T14:26:38.996Z,56.50
2019-03-29T14:29:14.848Z,55.70
2019-03-29T14:31:50.645Z,56.70
2019-03-29T14:34:26.419Z,55.70
2019-03-29T14:37:02.431Z,57.30
2019-03-29T14:39:38.162Z,55.50
2019-03-29T14:42:13.945Z,57.80
2019-03-29T14:44:52.727Z,56.80
2019-03-29T14:47:40.909Z,56.20
2019-03-29T14:50:05.004Z,57.20
2019-03-29T14:52:40.791Z,57.50
2019-03-29T14:55:16.546Z,56.20
2019-03-29T14:57:52.275Z,56.60
2019-03-29T15:00:41.784Z,56.00
2019-03-29T15:03:17.653Z,56.90
2019-03-29T15:05:53.414Z,57.30
2019-03-29T15:08:29.095Z,57.40
2019-03-29T15:11:04.826Z,57.50
2019-03-29T15:13:40.750Z,57.40
2019-03-29T15:16:16.465Z,56.80
2019-03-29T15:18:52.251Z,55.90
2019-03-29T15:21:28.015Z,56.10
2019-03-29T15:24:03.890Z,57.50
2019-03-29T15:26:39.643Z,57.30
2019-03-29T15:29:15.521Z,57.20
2019-03-29T15:31:51.540Z,58.80
2019-03-29T15:34:27.358Z,58.00
2019-03-29T15:37:03.077Z,59.30
2019-03-29T15:39:38.840Z,59.10
2019-03-29T15:42:14.716Z,57.40
2019-03-29T15:44:50.534Z,58.50
2019-03-29T15:47:27.238Z,59.10
2019-03-29T15:50:03.104Z,59.00
2019-03-29T15:52:39.732Z,59.10
2019-03-29T15:55:15.423Z,59.00
2019-03-29T15:57:51.129Z,59.80
2019-03-29T16:00:26.922Z,59.30
2019-03-29T16:03:02.744Z,59.00
2019-03-29T16:05:38.496Z,59.50
2019-03-29T16:08:14.207Z,59.80
2019-03-29T16:10:54.535Z,60.00
2019-03-29T16:13:30.267Z,60.10
2019-03-29T16:16:06.157Z,60.90
2019-03-29T16:18:41.905Z,61.10
2019-03-29T16:21:18.609Z,59.80
2019-03-29T16:23:54.333Z,61.70
2019-03-29T16:26:31.337Z,61.80
2019-03-29T16:29:06.985Z,61.20
2019-03-29T16:31:42.818Z,62.70
2019-03-29T16:34:18.582Z,62.40
2019-03-29T16:36:54.604Z,63.80
2019-03-29T16:39:30.355Z,63.00
2019-03-29T16:42:07.739Z,63.60
2019-03-29T16:44:43.531Z,63.70
2019-03-29T16:47:21.283Z,63.10
2019-03-29T16:49:56.956Z,64.30
2019-03-29T16:52:33.011Z,64.50
2019-03-29T16:55:13.610Z,63.70
2019-03-29T16:57:46.210Z,64.20
2019-03-29T17:00:22.101Z,64.80
2019-03-29T17:02:57.833Z,64.60
2019-03-29T17:05:33.640Z,65.40
2019-03-29T17:08:09.383Z,65.40
2019-03-29T17:10:45.224Z,65.50
2019-03-29T17:13:21.088Z,67.10
2019-03-29T17:16:01.955Z,66.10
2019-03-29T17:18:34.223Z,66.50
2019-03-29T17:21:10.173Z,66.50
2019-03-29T17:23:45.862Z,67.10
2019-03-29T17:26:21.588Z,66.70
2019-03-29T17:28:59.570Z,67.20
2019-03-29T17:31:35.272Z,68.40
2019-03-29T17:34:11.060Z,70.30
2019-03-29T17:36:46.774Z,69.70
2019-03-29T17:39:22.536Z,69.80
2019-03-29T17:41:58.284Z,69.30
2019-03-29T17:44:34.032Z,70.40
2019-03-29T17:47:11.610Z,70.70
2019-03-29T17:49:47.371Z,71.10
2019-03-29T17:52:23.155Z,71.50
2019-03-29T17:54:58.946Z,71.60
2019-03-29T17:57:34.703Z,72.80
2019-03-29T18:00:11.729Z,73.30
2019-03-29T18:02:47.441Z,73.70
2019-03-29T18:05:23.208Z,76.20
2019-03-29T18:07:59.299Z,75.40
2019-03-29T18:10:35.375Z,77.30
2019-03-29T18:13:11.111Z,76.70
2019-03-29T18:15:47.117Z,76.70
2019-03-29T18:18:22.837Z,77.50
2019-03-29T18:20:59.907Z,77.50
2019-03-29T18:23:38.595Z,79.30
2019-03-29T18:26:15.203Z,78.80
2019-03-29T18:28:56.193Z,79.90
2019-03-29T18:31:33.641Z,79.50
2019-03-29T18:34:11.360Z,79.10
2019-03-29T18:36:47.159Z,77.80
2019-03-29T18:39:22.882Z,77.00
2019-03-29T18:41:58.702Z,76.80
2019-03-29T18:44:34.452Z,76.40
2019-03-29T18:47:10.231Z,76.30
2019-03-29T18:49:46.058Z,76.40
2019-03-29T18:52:21.983Z,76.00
2019-03-29T18:54:57.722Z,76.40
2019-03-29T18:57:33.736Z,76.10
2019-03-29T19:00:09.512Z,77.40
2019-03-29T19:02:45.406Z,77.10
2019-03-29T19:05:25.417Z,77.50
2019-03-29T19:08:01.303Z,78.10
2019-03-29T19:10:37.089Z,77.60
2019-03-29T19:13:13.861Z,78.60
2019-03-29T19:15:49.632Z,78.00
2019-03-29T19:18:25.435Z,78.70
2019-03-29T19:21:01.335Z,78.70
2019-03-29T19:23:37.170Z,78.60
2019-03-29T19:26:15.950Z,78.80
2019-03-29T19:28:51.727Z,78.70
2019-03-29T19:31:32.170Z,79.00
2019-03-29T19:34:17.897Z,79.80
2019-03-29T19:36:53.539Z,79.30
2019-03-29T19:39:29.333Z,79.50
2019-03-29T19:42:05.070Z,81.30
2019-03-29T19:44:40.853Z,81.30
2019-03-29T19:47:16.598Z,81.50
2019-03-29T19:49:55.226Z,81.60
2019-03-29T19:52:29.871Z,81.50
2019-03-29T19:55:06.405Z,81.70
2019-03-29T19:57:42.224Z,82.80
2019-03-29T20:00:18.153Z,81.70
2019-03-29T20:02:53.871Z,82.50
2019-03-29T20:05:29.664Z,81.70
2019-03-29T20:08:05.336Z,82.20
2019-03-29T20:10:41.136Z,81.70
2019-03-29T20:13:17.030Z,82.10
2019-03-29T20:15:52.933Z,81.60
2019-03-29T20:18:28.676Z,82.00
2019-03-29T20:21:04.465Z,83.40
2019-03-29T20:23:40.230Z,83.10
2019-03-29T20:26:16.147Z,84.60
2019-03-29T20:28:51.872Z,84.40
2019-03-29T20:31:27.650Z,85.20
2019-03-29T20:34:03.399Z,84.50
2019-03-29T20:36:39.128Z,83.90
2019-03-29T20:39:14.844Z,83.80
2019-03-29T20:41:50.897Z,84.50
2019-03-29T20:44:26.630Z,84.90
2019-03-29T20:47:02.583Z,86.00
2019-03-29T20:49:38.317Z,86.30
2019-03-29T20:52:14.094Z,86.50
2019-03-29T20:54:49.905Z,86.60
2019-03-29T20:57:25.805Z,87.80
2019-03-29T21:00:01.509Z,86.70
2019-03-29T21:02:37.249Z,87.20
2019-03-29T21:05:13.063Z,86.80
2019-03-29T21:07:49.073Z,87.10
2019-03-29T21:10:24.747Z,87.40
2019-03-29T21:13:00.552Z,86.90
2019-03-29T21:15:36.268Z,87.50
2019-03-29T21:18:12.071Z,87.90
2019-03-29T21:20:47.896Z,88.80
2019-03-29T21:23:23.744Z,89.60
2019-03-29T21:25:59.495Z,88.50
2019-03-29T21:28:35.296Z,88.30
2019-03-29T21:31:11.034Z,89.00
2019-03-29T21:34:05.340Z,89.70
2019-03-29T21:36:41.199Z,88.60
2019-03-29T21:39:17.084Z,88.40
2019-03-29T21:41:52.848Z,90.00
2019-03-29T21:44:28.604Z,89.20
2019-03-29T21:47:04.432Z,89.70
2019-03-29T21:49:40.311Z,89.60
2019-03-29T21:52:16.017Z,90.70
2019-03-29T21:54:51.804Z,90.70
2019-03-29T21:57:27.695Z,90.60
2019-03-29T22:00:03.673Z,90.60
2019-03-29T22:02:40.416Z,90.50
2019-03-29T22:05:16.601Z,90.40
2019-03-29T22:07:52.397Z,90.70
2019-03-29T22:10:28.197Z,90.70
2019-03-29T22:13:04.043Z,90.30
2019-03-29T22:15:40.033Z,90.50
2019-03-29T22:18:15.795Z,90.60
2019-03-29T22:20:58.180Z,90.60
2019-03-29T22:23:36.687Z,90.80
2019-03-29T22:26:12.431Z,91.00
2019-03-29T22:28:48.085Z,91.10
2019-03-29T22:31:23.950Z,91.50
2019-03-29T22:33:59.636Z,91.30
2019-03-29T22:36:35.348Z,91.20
2019-03-29T22:39:11.089Z,91.00
2019-03-29T22:41:47.180Z,91.30
2019-03-29T22:44:22.839Z,91.70
2019-03-29T22:46:58.718Z,91.40
2019-03-29T22:49:34.495Z,91.30
2019-03-29T22:52:11.261Z,91.50
2019-03-29T22:54:47.337Z,91.40
2019-03-29T22:57:23.082Z,91.50
2019-03-29T22:59:59.152Z,91.20
2019-03-29T23:02:35.168Z,91.30
2019-03-29T23:05:10.969Z,91.10
2019-03-29T23:07:47.198Z,91.30
2019-03-29T23:10:22.986Z,91.80
2019-03-29T23:12:58.837Z,91.80
2019-03-29T23:15:34.807Z,91.20
2019-03-29T23:18:10.540Z,91.70
2019-03-29T23:20:46.219Z,91.70
2019-03-29T23:23:22.048Z,91.80
2019-03-29T23:25:57.775Z,91.70
2019-03-29T23:28:33.555Z,91.80
2019-03-29T23:31:09.344Z,91.50
2019-03-29T23:33:45.185Z,91.80
2019-03-29T23:36:20.963Z,91.50
2019-03-29T23:38:57.783Z,91.70
2019-03-29T23:41:33.533Z,91.70
2019-03-29T23:44:09.679Z,92.00
2019-03-29T23:46:45.560Z,91.90
2019-03-29T23:49:21.686Z,92.20
2019-03-29T23:51:57.652Z,92.20
2019-03-29T23:54:33.636Z,92.30
2019-03-29T23:57:09.339Z,92.00
2019-03-29T23:59:46.190Z,92.00
